Canon City, CO

6:46 AM MDT on May 24, 2015 (GMT -0600)
Pueblo Memorial | | Change Station
CLOSE
Current Station
Airport
Location: Pueblo,
Elevation: 4721 ft
Nearby Weather Stations

Elev 4721 ft 38.29 °N, 104.50 °W | Updated 53 minutes ago

Partly Cloudy
Partly Cloudy
44 °F
Feels Like 44 °F
N
0
Wind Variable Wind from North

Today
High -- | Low -- °F
--% Chance of Precip.
Yesterday
High -- | Low -- °F
Precip. -- in
5:43 AM 8:13 PM
Waxing Crescent, 39% visible
Pressure 29.81 in
Visibility 10.0 miles
Clouds Clear
Dew Point 42 °F
Humidity 93%
Rainfall 0.00 in
Snow Depth Not available.
UV 0 out of 12
Pollen 7.30 out of 12
Air Quality Not available.
Flu Activity Sporadic
METAR KPUB 241153Z AUTO 00000KT 10SM CLR 07/06 A2991 RMK AO2 SLP095 70006 T00670056 10117 20061 58001

More Conditions Fewer Conditions

Pressure 29.81 in
Visibility 10.0 miles
Clouds Clear
Dew Point 42 °F
Humidity 93%
Rainfall 0.00 in
Snow Depth Not available.
UV 0 out of 12
Pollen 7.30 out of 12
Air Quality Not available.
Flu Activity Sporadic
METAR KPUB 241153Z AUTO 00000KT 10SM CLR 07/06 A2991 RMK AO2 SLP095 70006 T00670056 10117 20061 58001

More Conditions Fewer Conditions

10-Day Weather Forecast

Almanac

Astronomy

May. 24, 2015 Rise Set
Actual Time
Civil Twilight
Nautical Twilight
Astronomical Twilight
Moon
Length of Visible Light
Length of Day
Tomorrow will be .
, % of the Moon is Illuminated

Today's Extremes

State Highs State Lows

Community

WunderPhotos

Upload Photos

1,823,722 photos uploaded!

WunderBlogs® & News

Nearby

Air Quality

  Air Quality AQ Index Pollutant
Not available.

Snow Depth

Station Depth Elevation

Earthquake Activity

City Distance Mag. Time & Date
Minimum magnitude displayed is 2.5.

Coastal Water Temperatures

Place Temperature

Stations

Nearby Weather Stations

Station Location Temp. Windchill Dew Point Humidity Wind Precip. Elev Updated Type